LGKRLGIO

Guest
Details From LGKR - Ioannis Kapodistrias Intl
To LGIO - Ioannina
Flight Number -
Tags Routegen Generated
Created
Modified
Stats Distance 49 nm / 92 km
Max Altitude 100 ft / 30 m
Waypoints 5
Social Downloads 8
Likes 0
Share

Download

Looking for another format? Having issues loading an existing format? Contact us
Advertisement - Login to hide

Notes

Departing runway 16 LGKR. Arriving runway 14 LGIO.

Route

LGKR +39.52_+019.93 +39.64_+020.34 +39.76_+020.76 LGIO

ID Type Via Altitude (ft/m) Position (lat/lon) Dist (leg/tot) Name
O LGKR APT - 0 / 0 39.59128 / 19.91461 - / 0 nm
+39.52_+019.93 LATLON - 100 / 30 39.52028 / 19.93281 4 / 4 nm
+39.64_+020.34 LATLON - 100 / 30 39.64114 / 20.34436 20 / 24 nm
+39.76_+020.76 LATLON - 100 / 30 39.76200 / 20.75590 20 / 45 nm
O LGIO APT - 0 / 0 39.70500 / 20.81389 4 / 49 nm

Altitude Profile

Advertisement - Login to hide

LGKR

Details ICAO LGKR (CFU)
Name IOANNIS KAPODISTRIAS INTL
Region Greece
Timezone Europe/Athens (UTC+3.0)
Stats Elevation 0 ft / 0 m (AMSL)
Location 39.602300° 19.912000°
Runways 1
Magnetic Variation 4.430° E

METAR

LGKR 130650Z 09004KT 9999 -RA FEW015 SCT025 OVC080 13/12 Q1019 NOSIG

Decode

TAF

TAF LGKR 130500Z 1306/1406 14010KT 9999 FEW025 BKN080 PROB30 TEMPO 1306/1322 5000 RA FEW018TCU SCT020 BKN070 BECMG 1316/1318 VRB05KT PROB30 TEMPO 1318/1322 4000 TSRA FEW018CB BKN020 BKN070 BECMG 1403/1405 33012KT

Decode

Departure Runways

ID Width Length Bearing (true/mag) Surface Threshold Overrun Markings Lighting
17 148 ft / 45 m 7,604 ft / 2,318 m 168.78° / 164.35° ASPHALT 1,342 ft / 409 m 0 ft / 0 m PREC-APP EDGE THRESHOLD ALSF-I
35 148 ft / 45 m 7,604 ft / 2,318 m 348.79° / 344.36° ASPHALT 0 ft / 0 m 0 ft / 0 m PREC-APP EDGE THRESHOLD SALS REIL-OMNI

LGIO

Details ICAO LGIO (IOA)
Name Ioannina King Pyrros Airport
Region Greece
Timezone Europe/Athens (UTC+3.0)
Stats Elevation 1,558 ft / 475 m (AMSL)
Location 39.697300° 20.821900°
Runways 1
Magnetic Variation 4.570° E

METAR

LGIO 130650Z VRB03KT 9999 SCT040 SCT070 11/07 Q1021

Decode

TAF

Not found

Destination Runways

ID Width Length Bearing (true/mag) Surface Threshold Overrun Markings Lighting
14 148 ft / 45 m 7,866 ft / 2,397 m 141.77° / 137.20° ASPHALT 0 ft / 0 m 0 ft / 0 m PREC-APP CENTERLINE EDGE THRESHOLD
32 148 ft / 45 m 7,866 ft / 2,397 m 321.78° / 317.21° ASPHALT 394 ft / 120 m 0 ft / 0 m PREC-APP CENTERLINE EDGE THRESHOLD

Popular Alternatives